<?xml version='1.0' encoding='UTF-8'?><gpx version="1.1" creator="JPX - https://github.com/jenetics/jpx" xmlns="http://www.topografix.com/GPX/1/1"><trk><trkseg><trkpt lat="48.84591059205491" lon="2.3491922506145233"><ele>60.85714285714285</ele><time>2026-04-05T09:35:52.999Z</time></trkpt><trkpt lat="48.84597680287127" lon="2.349173847317436"><ele>60.71428571428571</ele><time>2026-04-05T09:36:02.999Z</time></trkpt><trkpt lat="48.84608526518776" lon="2.3491623774651726"><ele>60.57142857142857</ele><time>2026-04-05T09:36:14.999Z</time></trkpt><trkpt lat="48.84612601455497" lon="2.3490765150434845"><ele>60.42857142857142</ele><time>2026-04-05T09:36:28.999Z</time></trkpt><trkpt lat="48.846133391294806" lon="2.348977057565675"><ele>60.28571428571428</ele><time>2026-04-05T09:36:33.999Z</time></trkpt><trkpt lat="48.846157943906775" lon="2.348883560187145"><ele>60.142857142857146</ele><time>2026-04-05T09:36:41.999Z</time></trkpt><trkpt lat="48.846162857556855" lon="2.3487769436119734"><ele>60.0</ele><time>2026-04-05T09:36:49.998Z</time></trkpt><trkpt lat="48.84618593059508" lon="2.348684536074177"><ele>60.0</ele><time>2026-04-05T09:36:56.998Z</time></trkpt><trkpt lat="48.84620006736078" lon="2.3485868638740666"><ele>60.0</ele><time>2026-04-05T09:37:03.998Z</time></trkpt><trkpt lat="48.84620896837959" lon="2.348468979635102"><ele>60.0</ele><time>2026-04-05T09:37:13Z</time></trkpt><trkpt lat="48.846229535483246" lon="2.3483671979069567"><ele>60.0</ele><time>2026-04-05T09:37:19Z</time></trkpt><trkpt lat="48.84624598622923" lon="2.348268977634326"><ele>60.0</ele><time>2026-04-05T09:37:26Z</time></trkpt><trkpt lat="48.846265243159046" lon="2.348173159988303"><ele>60.0</ele><time>2026-04-05T09:37:34Z</time></trkpt><trkpt lat="48.84628156994471" lon="2.3480726554310976"><ele>60.0</ele><time>2026-04-05T09:37:45Z</time></trkpt><trkpt lat="48.84629958716701" lon="2.347961744889415"><ele>60.42857142857143</ele><time>2026-04-05T09:37:52Z</time></trkpt><trkpt lat="48.846307677077284" lon="2.3478620748942345"><ele>60.857142857142854</ele><time>2026-04-05T09:37:59Z</time></trkpt><trkpt lat="48.846327008170945" lon="2.347770025446802"><ele>61.285714285714285</ele><time>2026-04-05T09:38:06Z</time></trkpt><trkpt lat="48.84636665766058" lon="2.3476882596158783"><ele>61.714285714285715</ele><time>2026-04-05T09:38:13Z</time></trkpt><trkpt lat="48.846386830548774" lon="2.3475863439020483"><ele>62.14285714285714</ele><time>2026-04-05T09:38:20Z</time></trkpt><trkpt lat="48.84646964380365" lon="2.347522128905426"><ele>62.57142857142857</ele><time>2026-04-05T09:38:54.999Z</time></trkpt><trkpt lat="48.84653437479191" lon="2.347485029512514"><ele>63.0</ele><time>2026-04-05T09:38:58.999Z</time></trkpt><trkpt lat="48.8466110721166" lon="2.347336139118913"><ele>63.0</ele><time>2026-04-05T09:40:26Z</time></trkpt><trkpt lat="48.84661412678474" lon="2.3472396464036804"><ele>63.0</ele><time>2026-04-05T09:40:35Z</time></trkpt><trkpt lat="48.846619487948416" lon="2.347141212861059"><ele>63.0</ele><time>2026-04-05T09:40:43Z</time></trkpt><trkpt lat="48.84658978440837" lon="2.3470500582135143"><ele>63.0</ele><time>2026-04-05T09:40:50.999Z</time></trkpt><trkpt lat="48.84656587378283" lon="2.3469531068047296"><ele>63.0</ele><time>2026-04-05T09:40:58.999Z</time></trkpt><trkpt lat="48.84655758957546" lon="2.34685167945891"><ele>63.0</ele><time>2026-04-05T09:41:06.999Z</time></trkpt><trkpt lat="48.84657738397654" lon="2.346755481889437"><ele>63.0</ele><time>2026-04-05T09:41:15.999Z</time></trkpt><trkpt lat="48.84659064920047" lon="2.3466562469347743"><ele>63.5</ele><time>2026-04-05T09:41:24Z</time></trkpt><trkpt lat="48.84658728547902" lon="2.346548715694931"><ele>64.0</ele><time>2026-04-05T09:41:34Z</time></trkpt><trkpt lat="48.8466799891826" lon="2.3464278475141787"><ele>64.5</ele><time>2026-04-05T09:41:58Z</time></trkpt><trkpt lat="48.84669434747892" lon="2.346319649512047"><ele>65.0</ele><time>2026-04-05T09:42:06Z</time></trkpt><trkpt lat="48.84671885870394" lon="2.3462233189642796"><ele>65.5</ele><time>2026-04-05T09:42:15Z</time></trkpt><trkpt lat="48.84670054514444" lon="2.346100476084058"><ele>66.0</ele><time>2026-04-05T09:42:22Z</time></trkpt><trkpt lat="48.846653700003074" lon="2.346022736003676"><ele>66.0</ele><time>2026-04-05T09:42:28Z</time></trkpt><trkpt lat="48.84661163957841" lon="2.345938947308954"><ele>66.0</ele><time>2026-04-05T09:42:37Z</time></trkpt><trkpt lat="48.84662216234171" lon="2.3458445687235296"><ele>66.0</ele><time>2026-04-05T09:42:44.999Z</time></trkpt><trkpt lat="48.84663962576668" lon="2.3457469179302266"><ele>66.0</ele><time>2026-04-05T09:42:51.999Z</time></trkpt><trkpt lat="48.84669457115051" lon="2.345611552654048"><ele>66.0</ele><time>2026-04-05T09:43:04.999Z</time></trkpt><trkpt lat="48.84670566541442" lon="2.3455037727216403"><ele>66.0</ele><time>2026-04-05T09:43:13.999Z</time></trkpt><trkpt lat="48.8467350979178" lon="2.3454085148284864"><ele>66.0</ele><time>2026-04-05T09:43:23Z</time></trkpt><trkpt lat="48.846745681114584" lon="2.345309203578755"><ele>65.85714285714286</ele><time>2026-04-05T09:43:31Z</time></trkpt><trkpt lat="48.84676549482272" lon="2.345210738694249"><ele>65.71428571428572</ele><time>2026-04-05T09:43:42Z</time></trkpt><trkpt lat="48.84672130459838" lon="2.345132329469337"><ele>65.57142857142858</ele><time>2026-04-05T09:43:52Z</time></trkpt><trkpt lat="48.846666755591805" lon="2.3450838609387135"><ele>65.42857142857143</ele><time>2026-04-05T09:43:54Z</time></trkpt><trkpt lat="48.84664681746747" lon="2.3449929725107777"><ele>65.28571428571429</ele><time>2026-04-05T09:44:20Z</time></trkpt><trkpt lat="48.84658387508682" lon="2.344976992386446"><ele>65.14285714285715</ele><time>2026-04-05T09:44:51Z</time></trkpt><trkpt lat="48.846492445661404" lon="2.3450826824151614"><ele>65.0</ele><time>2026-04-05T09:44:54.999Z</time></trkpt><trkpt lat="48.84642535930104" lon="2.3451054925221784"><ele>65.0</ele><time>2026-04-05T09:46:19Z</time></trkpt><trkpt lat="48.84638346558008" lon="2.345184478232981"><ele>65.0</ele><time>2026-04-05T09:46:34Z</time></trkpt><trkpt lat="48.84632757670165" lon="2.34536503883909"><ele>65.0</ele><time>2026-04-05T09:47:48Z</time></trkpt><trkpt lat="48.84639936066756" lon="2.3452215876786937"><ele>65.0</ele><time>2026-04-05T09:49:46Z</time></trkpt><trkpt lat="48.84639561246381" lon="2.3451253083815558"><ele>65.0</ele><time>2026-04-05T09:51:03Z</time></trkpt><trkpt lat="48.84640226699242" lon="2.345022486271602"><ele>65.0</ele><time>2026-04-05T09:51:59Z</time></trkpt><trkpt lat="48.84640672231171" lon="2.3449269699498387"><ele>65.00000000000001</ele><time>2026-04-05T09:52:20Z</time></trkpt><trkpt lat="48.846434602480784" lon="2.3448306475990086"><ele>65.0</ele><time>2026-04-05T09:52:29Z</time></trkpt><trkpt lat="48.846443251633595" lon="2.3447290679287507"><ele>65.0</ele><time>2026-04-05T09:53:38.999Z</time></trkpt><trkpt lat="48.846461758894904" lon="2.3446356238284705"><ele>65.0</ele><time>2026-04-05T09:53:47.999Z</time></trkpt><trkpt lat="48.84647559515636" lon="2.3445415567200083"><ele>65.0</ele><time>2026-04-05T09:53:59Z</time></trkpt><trkpt lat="48.846468256500806" lon="2.344435633686691"><ele>65.00000000000001</ele><time>2026-04-05T09:54:08Z</time></trkpt><trkpt lat="48.84647264351484" lon="2.3443258922702754"><ele>65.0</ele><time>2026-04-05T09:54:20Z</time></trkpt><trkpt lat="48.84649510020114" lon="2.344232888972591"><ele>65.0</ele><time>2026-04-05T09:54:28Z</time></trkpt><trkpt lat="48.84652379417438" lon="2.344132648240264"><ele>65.0</ele><time>2026-04-05T09:54:36Z</time></trkpt><trkpt lat="48.846564752880234" lon="2.344045141769887"><ele>65.0</ele><time>2026-04-05T09:54:44Z</time></trkpt><trkpt lat="48.84658618096828" lon="2.3439538029907236"><ele>65.0</ele><time>2026-04-05T09:54:50Z</time></trkpt><trkpt lat="48.8466077712903" lon="2.3438544337794824"><ele>65.0</ele><time>2026-04-05T09:54:57Z</time></trkpt><trkpt lat="48.84680588103657" lon="2.34376198731093"><ele>65.16666666666667</ele><time>2026-04-05T09:55:25.999Z</time></trkpt><trkpt lat="48.84678960001997" lon="2.343649723714366"><ele>65.33333333333334</ele><time>2026-04-05T09:55:35.999Z</time></trkpt><trkpt lat="48.84674035173176" lon="2.34357660578372"><ele>65.5</ele><time>2026-04-05T09:55:38.999Z</time></trkpt><trkpt lat="48.84671741020825" lon="2.3434762923369137"><ele>65.66666666666667</ele><time>2026-04-05T09:55:42.999Z</time></trkpt><trkpt lat="48.84672448211892" lon="2.3433712605319648"><ele>65.83333333333333</ele><time>2026-04-05T09:55:50.999Z</time></trkpt><trkpt lat="48.84674290565682" lon="2.3431900227202447"><ele>66.0</ele><time>2026-04-05T09:56:01Z</time></trkpt><trkpt lat="48.84676178002704" lon="2.3430887649363656"><ele>66.14285714285714</ele><time>2026-04-05T09:56:10Z</time></trkpt><trkpt lat="48.84678349415182" lon="2.3429897386826717"><ele>66.28571428571429</ele><time>2026-04-05T09:56:20Z</time></trkpt><trkpt lat="48.846804016239766" lon="2.342896148629745"><ele>66.42857142857143</ele><time>2026-04-05T09:56:29Z</time></trkpt><trkpt lat="48.846817546992895" lon="2.3427948894615773"><ele>66.57142857142857</ele><time>2026-04-05T09:56:40Z</time></trkpt><trkpt lat="48.84683712223512" lon="2.3426963339626568"><ele>66.71428571428571</ele><time>2026-04-05T09:56:49Z</time></trkpt><trkpt lat="48.84685665784506" lon="2.3425876503928995"><ele>66.85714285714286</ele><time>2026-04-05T10:00:34.998Z</time></trkpt><trkpt lat="48.8468779690261" lon="2.3424973040303465"><ele>67.0</ele><time>2026-04-05T10:00:42.998Z</time></trkpt><trkpt lat="48.8468863038095" lon="2.3424002827804955"><ele>66.42857142857143</ele><time>2026-04-05T10:00:49.998Z</time></trkpt><trkpt lat="48.84690139566166" lon="2.342295626374964"><ele>65.85714285714286</ele><time>2026-04-05T10:00:57.998Z</time></trkpt><trkpt lat="48.84692822671294" lon="2.342196653183026"><ele>65.28571428571428</ele><time>2026-04-05T10:01:07.998Z</time></trkpt><trkpt lat="48.84696039519401" lon="2.342109331619838"><ele>64.71428571428572</ele><time>2026-04-05T10:01:17.998Z</time></trkpt><trkpt lat="48.84698948677575" lon="2.3420227939039915"><ele>64.14285714285714</ele><time>2026-04-05T10:01:25.998Z</time></trkpt><trkpt lat="48.8470194725497" lon="2.341935541263438"><ele>63.57142857142857</ele><time>2026-04-05T10:01:40.998Z</time></trkpt><trkpt lat="48.84703464825189" lon="2.3418277011492186"><ele>63.0</ele><time>2026-04-05T10:01:48.998Z</time></trkpt><trkpt lat="48.84704773845164" lon="2.3417263272633"><ele>62.57142857142857</ele><time>2026-04-05T10:01:55.998Z</time></trkpt><trkpt lat="48.84706446836376" lon="2.341623150958222"><ele>62.14285714285714</ele><time>2026-04-05T10:02:02.998Z</time></trkpt><trkpt lat="48.8470962508485" lon="2.3415360645662746"><ele>61.714285714285715</ele><time>2026-04-05T10:02:10.998Z</time></trkpt><trkpt lat="48.84712461228029" lon="2.3414390160676497"><ele>61.285714285714285</ele><time>2026-04-05T10:02:20.998Z</time></trkpt><trkpt lat="48.84714788331194" lon="2.3413435918144754"><ele>60.857142857142854</ele><time>2026-04-05T10:02:27.998Z</time></trkpt><trkpt lat="48.84716340528566" lon="2.341237343116527"><ele>60.42857142857143</ele><time>2026-04-05T10:02:39.999Z</time></trkpt><trkpt lat="48.84717247976121" lon="2.3411355671599825"><ele>60.0</ele><time>2026-04-05T10:02:47.999Z</time></trkpt><trkpt lat="48.84717767313161" lon="2.3410314217059183"><ele>59.714285714285715</ele><time>2026-04-05T10:02:57.999Z</time></trkpt><trkpt lat="48.84719190929403" lon="2.340936259760735"><ele>59.42857142857143</ele><time>2026-04-05T10:03:17.999Z</time></trkpt><trkpt lat="48.84712702236366" lon="2.34090358085411"><ele>59.142857142857146</ele><time>2026-04-05T10:03:28.999Z</time></trkpt><trkpt lat="48.84706301983157" lon="2.3408534847370923"><ele>58.85714285714286</ele><time>2026-04-05T10:03:41.999Z</time></trkpt><trkpt lat="48.8470021412982" lon="2.3408289098350585"><ele>58.57142857142857</ele><time>2026-04-05T10:03:48.999Z</time></trkpt><trkpt lat="48.846937338834515" lon="2.3407966640040607"><ele>58.28571428571429</ele><time>2026-04-05T10:04:18.999Z</time></trkpt><trkpt lat="48.84687529262198" lon="2.3407644405248953"><ele>58.00000000000001</ele><time>2026-04-05T10:04:25Z</time></trkpt><trkpt lat="48.84681381390124" lon="2.3407324528225035"><ele>58.42857142857144</ele><time>2026-04-05T10:04:33Z</time></trkpt><trkpt lat="48.84674857685338" lon="2.3406942778227866"><ele>58.85714285714286</ele><time>2026-04-05T10:04:40Z</time></trkpt><trkpt lat="48.84668565951528" lon="2.3406507531850886"><ele>59.285714285714285</ele><time>2026-04-05T10:04:48Z</time></trkpt><trkpt lat="48.84670878280955" lon="2.3405543856527613"><ele>59.714285714285715</ele><time>2026-04-05T10:05:03Z</time></trkpt><trkpt lat="48.84673586940481" lon="2.340448783422457"><ele>60.14285714285714</ele><time>2026-04-05T10:05:11Z</time></trkpt><trkpt lat="48.84676854126937" lon="2.3403590219318624"><ele>60.57142857142856</ele><time>2026-04-05T10:05:18Z</time></trkpt><trkpt lat="48.84682348556002" lon="2.3403021824447947"><ele>60.99999999999999</ele><time>2026-04-05T10:05:26Z</time></trkpt><trkpt lat="48.84681059383653" lon="2.340164433415789"><ele>60.14285714285713</ele><time>2026-04-05T10:06:14Z</time></trkpt><trkpt lat="48.84678071430367" lon="2.340070524593067"><ele>59.285714285714285</ele><time>2026-04-05T10:06:23Z</time></trkpt><trkpt lat="48.84678343661069" lon="2.3399635727775303"><ele>58.42857142857142</ele><time>2026-04-05T10:06:40Z</time></trkpt><trkpt lat="48.84674708172809" lon="2.3398822640149093"><ele>57.57142857142857</ele><time>2026-04-05T10:06:51Z</time></trkpt><trkpt lat="48.84677187478032" lon="2.3397833505837595"><ele>56.71428571428571</ele><time>2026-04-05T10:07:05Z</time></trkpt><trkpt lat="48.84676552212885" lon="2.339673478833465"><ele>55.857142857142854</ele><time>2026-04-05T10:07:10Z</time></trkpt><trkpt lat="48.84678364386559" lon="2.339578264431588"><ele>55.0</ele><time>2026-04-05T10:07:18Z</time></trkpt><trkpt lat="48.84675939836588" lon="2.3394803038334318"><ele>54.99999999999999</ele><time>2026-04-05T10:07:25Z</time></trkpt><trkpt lat="48.846753862238806" lon="2.3393764435344044"><ele>55.0</ele><time>2026-04-05T10:07:29Z</time></trkpt><trkpt lat="48.84676549749306" lon="2.3392807680521295"><ele>55.0</ele><time>2026-04-05T10:07:36Z</time></trkpt><trkpt lat="48.84676391070695" lon="2.3391838378760603"><ele>55.0</ele><time>2026-04-05T10:07:46Z</time></trkpt><trkpt lat="48.84678768960516" lon="2.3390939669721775"><ele>55.0</ele><time>2026-04-05T10:07:53Z</time></trkpt><trkpt lat="48.84681755538987" lon="2.3389947266930706"><ele>54.99999999999999</ele><time>2026-04-05T10:07:58Z</time></trkpt><trkpt lat="48.84683940505386" lon="2.3389000655581094"><ele>55.0</ele><time>2026-04-05T10:08:05Z</time></trkpt><trkpt lat="48.84685508660376" lon="2.3387999324975266"><ele>55.71428571428571</ele><time>2026-04-05T10:08:17Z</time></trkpt><trkpt lat="48.84685620351181" lon="2.3386922070525222"><ele>56.42857142857143</ele><time>2026-04-05T10:08:23Z</time></trkpt><trkpt lat="48.84686955378582" lon="2.338591736135806"><ele>57.14285714285714</ele><time>2026-04-05T10:08:30Z</time></trkpt><trkpt lat="48.84687191787949" lon="2.3384884878756513"><ele>57.857142857142854</ele><time>2026-04-05T10:08:41Z</time></trkpt><trkpt lat="48.846867819205485" lon="2.3383843109044533"><ele>58.57142857142857</ele><time>2026-04-05T10:08:54Z</time></trkpt><trkpt lat="48.84687192539146" lon="2.3382779292317792"><ele>59.285714285714285</ele><time>2026-04-05T10:09:06Z</time></trkpt><trkpt lat="48.84691446292827" lon="2.338206602113085"><ele>60.0</ele><time>2026-04-05T10:09:14Z</time></trkpt><trkpt lat="48.847017423555116" lon="2.3381921861488983"><ele>60.0</ele><time>2026-04-05T10:09:27Z</time></trkpt><trkpt lat="48.84708086330853" lon="2.338149099204865"><ele>60.0</ele><time>2026-04-05T10:09:33Z</time></trkpt><trkpt lat="48.84713587748474" lon="2.3380855606529916"><ele>60.0</ele><time>2026-04-05T10:09:40Z</time></trkpt><trkpt lat="48.84715889430366" lon="2.337979722763081"><ele>60.0</ele><time>2026-04-05T10:09:47Z</time></trkpt><trkpt lat="48.847177466613275" lon="2.337886693486295"><ele>60.0</ele><time>2026-04-05T10:09:53Z</time></trkpt><trkpt lat="48.847186246140694" lon="2.3377858653437267"><ele>60.0</ele><time>2026-04-05T10:10:01Z</time></trkpt><trkpt lat="48.84719910928263" lon="2.3376909655398554"><ele>60.0</ele><time>2026-04-05T10:10:13Z</time></trkpt><trkpt lat="48.84716442695901" lon="2.3376085277793917"><ele>51.0</ele><time>2026-04-05T10:10:19Z</time></trkpt><trkpt lat="48.84713582242602" lon="2.337522850662056"><ele>51.0</ele><time>2026-04-05T10:10:25Z</time></trkpt><trkpt lat="48.847090765358544" lon="2.3374431652807113"><ele>51.0</ele><time>2026-04-05T10:10:32Z</time></trkpt><trkpt lat="48.84721668098179" lon="2.337481421491631"><ele>51.0</ele><time>2026-04-05T10:13:03Z</time></trkpt></trkseg></trk></gpx>